Terminal Aerodrome Forecast
Issued by NWS

Current Version | Previous Version | Text Only | Print | Product List | Glossary Off
Versions: 1 2 3 4 5 6 7 8 9 10 11 12 13 14 15 16 17 18 19 20 21

000
FTUS41 KRLX 282300
TAFCKB
TAF
KCKB 282333Z 0100/0124 00000KT P6SM BKN070
     FM010800 00000KT 4SM BR OVC050
     FM010900 00000KT 1 1/2SM -SN BR OVC020
     FM011400 00000KT 2SM -RASN BR OVC010
     FM011600 VRB03KT 5SM -RA BR OVC008=

USA.gov is the U.S. government's official web portal to all federal, state and local government web resources and services.